Time;durP1;ratioP1;P1;durP2;ratioP2;P2;SDS_P1;SDS_P2;PMS_P1;PMS_P2;Temp;Humidity;BMP_temperature;BMP_pressure;BME280_temperature;BME280_humidity;BME280_pressure;Samples;Min_cycle;Max_cycle;Signal;HPM_P1;HPM_P2
2021/12/04 00:04:05;;;;;;;29.60;22.58;;;;;;;3.33;100.00;99900.81;10286185;28;20140;-68
2021/12/04 00:09:04;;;;;;;32.35;24.30;;;;;;;3.34;100.00;99902.41;10270371;28;20501;-68
2021/12/04 00:14:01;;;;;;;32.47;22.92;;;;;;;3.36;100.00;99900.22;10263281;28;20045;-68
2021/12/04 00:18:57;;;;;;;36.67;25.08;;;;;;;3.43;100.00;99886.34;10263582;28;20045;-69
2021/12/04 00:23:54;;;;;;;34.15;24.20;;;;;;;3.38;100.00;99893.44;10269625;28;20449;-69
2021/12/04 00:28:50;;;;;;;37.35;25.02;;;;;;;3.37;100.00;99896.44;10269954;28;20083;-70
2021/12/04 00:33:48;;;;;;;35.30;24.38;;;;;;;3.43;100.00;99879.03;10282470;28;20045;-69
2021/12/04 00:53:55;;;;;;;41.47;28.42;;;;;;;3.38;100.00;99887.22;10264817;28;20091;-68
2021/12/04 00:58:51;;;;;;;43.95;27.23;;;;;;;3.38;100.00;99879.13;10265305;28;20073;-70
2021/12/04 01:03:48;;;;;;;45.25;28.83;;;;;;;3.36;100.00;99884.00;10290746;28;20087;-70
2021/12/04 01:08:44;;;;;;;40.63;26.85;;;;;;;3.33;100.00;99871.09;10270429;28;20045;-69
2021/12/04 01:13:41;;;;;;;39.35;27.70;;;;;;;3.37;100.00;99880.22;10271219;28;20044;-69
2021/12/04 01:18:38;;;;;;;43.22;28.15;;;;;;;3.40;100.00;99885.03;10268627;28;20458;-69
2021/12/04 01:23:35;;;;;;;40.25;26.40;;;;;;;3.37;100.00;99885.63;10279850;28;20073;-68
2021/12/04 01:28:31;;;;;;;45.42;25.48;;;;;;;3.37;100.00;99888.31;10281257;28;20124;-68
2021/12/04 01:33:28;;;;;;;38.70;25.67;;;;;;;3.43;100.00;99889.84;10276078;28;20041;-68
2021/12/04 01:38:25;;;;;;;34.67;24.17;;;;;;;3.43;100.00;99879.03;10273576;28;20079;-70
2021/12/04 01:43:22;;;;;;;38.05;25.88;;;;;;;3.41;100.00;99893.94;10274739;28;20516;-69
2021/12/04 01:48:18;;;;;;;36.42;25.88;;;;;;;3.44;100.00;99886.06;10273348;28;20130;-69
2021/12/04 01:53:15;;;;;;;37.33;24.30;;;;;;;3.44;100.00;99890.69;10275641;28;20646;-68
2021/12/04 01:58:12;;;;;;;38.83;25.70;;;;;;;3.53;100.00;99889.75;10266974;28;20045;-70
2021/12/04 02:03:12;;;;;;;37.63;25.08;;;;;;;3.49;100.00;99888.69;10272347;28;20037;-69
2021/12/04 02:08:13;;;;;;;36.38;24.95;;;;;;;3.52;100.00;99893.53;10273278;28;20033;-68
2021/12/04 02:13:10;;;;;;;34.97;23.63;;;;;;;3.54;100.00;99895.94;10268801;28;20094;-69
2021/12/04 02:18:07;;;;;;;34.03;23.90;;;;;;;3.57;100.00;99904.28;10274268;28;20415;-69
2021/12/04 02:23:07;;;;;;;35.88;24.58;;;;;;;3.63;100.00;99896.91;10274709;28;20045;-68
2021/12/04 02:28:05;;;;;;;36.63;24.42;;;;;;;3.55;100.00;99887.56;10272078;28;20071;-68
2021/12/04 02:33:13;;;;;;;34.83;24.23;;;;;;;3.61;100.00;99879.38;10266206;28;20091;-67
2021/12/04 02:38:10;;;;;;;36.17;24.55;;;;;;;3.61;100.00;99876.66;10266912;28;20040;-69
2021/12/04 02:43:07;;;;;;;35.05;22.63;;;;;;;3.62;100.00;99892.59;10276863;28;20570;-70
2021/12/04 02:48:04;;;;;;;34.65;22.60;;;;;;;3.53;100.00;99878.94;10281500;28;20072;-70
2021/12/04 02:53:00;;;;;;;38.45;24.63;;;;;;;3.61;100.00;99882.06;10277547;28;20115;-70
2021/12/04 02:57:57;;;;;;;41.28;24.85;;;;;;;3.56;100.00;99875.63;10264577;28;20053;-68
2021/12/04 03:02:55;;;;;;;37.70;25.80;;;;;;;3.65;100.00;99869.59;10280317;28;20040;-68
2021/12/04 03:07:54;;;;;;;39.97;27.08;;;;;;;3.63;100.00;99861.75;10272312;28;20133;-69
2021/12/04 03:12:51;;;;;;;42.40;26.90;;;;;;;3.66;100.00;99865.78;10270844;28;20110;-70
2021/12/04 03:17:49;;;;;;;46.53;29.25;;;;;;;3.66;100.00;99855.75;10272695;28;20044;-70
2021/12/04 03:22:47;;;;;;;43.25;27.77;;;;;;;3.73;100.00;99852.69;10270810;28;20044;-70
2021/12/04 03:27:48;;;;;;;44.15;29.40;;;;;;;3.78;100.00;99847.19;10272531;28;20099;-72
2021/12/04 03:32:56;;;;;;;45.40;27.67;;;;;;;3.67;100.00;99845.78;10267876;28;20041;-71
2021/12/04 03:43:09;;;;;;;46.78;28.15;;;;;;;3.72;100.00;99842.97;10268809;28;20094;-67
2021/12/04 03:48:27;;;;;;;44.78;29.52;;;;;;;3.75;100.00;99836.97;10275640;28;20036;-70
2021/12/04 03:53:24;;;;;;;48.72;31.25;;;;;;;3.73;100.00;99833.75;10267751;28;20068;-68
2021/12/04 03:58:22;;;;;;;52.83;32.72;;;;;;;3.84;100.00;99829.81;10271430;28;20461;-67
2021/12/04 04:03:19;;;;;;;53.72;32.00;;;;;;;3.74;100.00;99819.97;10268856;28;20053;-68
2021/12/04 04:08:17;;;;;;;48.75;31.17;;;;;;;3.68;100.00;99820.31;10270607;28;20068;-71
2021/12/04 04:13:13;;;;;;;50.83;31.00;;;;;;;3.65;100.00;99804.69;10261325;28;20115;-70
2021/12/04 04:18:10;;;;;;;54.03;32.25;;;;;;;3.67;100.00;99813.31;10276176;28;20076;-71
2021/12/04 04:23:06;;;;;;;51.38;32.45;;;;;;;3.79;100.00;99806.34;10265324;28;20099;-69
2021/12/04 04:28:03;;;;;;;51.15;31.42;;;;;;;3.63;100.00;99812.28;10265211;28;20049;-70
2021/12/04 04:33:01;;;;;;;53.05;32.88;;;;;;;3.75;100.00;99810.72;10268565;28;20045;-70
2021/12/04 04:59:07;;;;;;;47.83;30.52;;;;;;;3.87;100.00;99812.97;10267456;28;20124;-68
2021/12/04 05:14:38;;;;;;;48.03;29.70;;;;;;;3.94;100.00;99818.03;10271148;28;20124;-71
2021/12/04 05:24:34;;;;;;;45.33;29.00;;;;;;;3.97;100.00;99814.75;10267422;28;20401;-68
2021/12/04 05:29:31;;;;;;;42.70;28.27;;;;;;;3.93;100.00;99817.22;10275149;28;20049;-69
2021/12/04 05:34:29;;;;;;;41.33;27.60;;;;;;;3.90;100.00;99809.72;10272278;28;20412;-68
2021/12/04 05:39:26;;;;;;;39.38;26.42;;;;;;;3.91;100.00;99808.59;10269479;28;20416;-69
2021/12/04 05:44:25;;;;;;;39.85;27.40;;;;;;;3.87;100.00;99812.97;10274612;28;20500;-68
2021/12/04 05:49:27;;;;;;;40.03;27.00;;;;;;;3.82;100.00;99820.38;10272955;28;20045;-69
2021/12/04 05:54:48;;;;;;;38.00;25.40;;;;;;;3.81;100.00;99819.59;10270689;28;20079;-67
2021/12/04 05:59:47;;;;;;;42.38;25.60;;;;;;;3.88;100.00;99816.50;10283508;28;20053;-67
2021/12/04 06:04:43;;;;;;;40.70;26.33;;;;;;;3.92;100.00;99825.63;10270456;28;20071;-67
2021/12/04 06:09:40;;;;;;;37.53;26.00;;;;;;;3.95;100.00;99831.25;10269177;28;20744;-67
2021/12/04 06:14:36;;;;;;;38.30;26.17;;;;;;;3.91;100.00;99841.06;10268709;28;20053;-68
2021/12/04 06:24:48;;;;;;;43.95;27.13;;;;;;;3.79;100.00;99833.38;10270243;28;20083;-68
2021/12/04 06:29:44;;;;;;;43.40;27.77;;;;;;;3.78;100.00;99830.97;10273401;28;20136;-69
2021/12/04 06:34:40;;;;;;;43.10;27.08;;;;;;;3.80;100.00;99828.78;10273821;28;20493;-68
2021/12/04 06:39:37;;;;;;;44.25;28.88;;;;;;;3.87;100.00;99828.41;10270473;28;20075;-69
2021/12/04 06:44:33;;;;;;;46.13;26.67;;;;;;;3.90;100.00;99825.94;10270881;28;20075;-68
2021/12/04 06:49:38;;;;;;;46.55;27.75;;;;;;;3.79;100.00;99824.47;10270700;28;20048;-67
2021/12/04 06:54:38;;;;;;;43.47;25.33;;;;;;;3.74;100.00;99814.56;10272841;28;20135;-67
2021/12/04 06:59:37;;;;;;;42.85;26.70;;;;;;;3.73;100.00;99821.03;10281447;28;20562;-69
2021/12/04 07:04:37;;;;;;;37.47;24.08;;;;;;;3.75;100.00;99820.75;10274396;28;20713;-70
2021/12/04 07:09:36;;;;;;;36.30;25.02;;;;;;;3.79;100.00;99821.78;10277199;28;20123;-69
2021/12/04 07:14:34;;;;;;;41.00;24.15;;;;;;;3.81;100.00;99819.59;10272058;28;20042;-69
2021/12/04 07:19:32;;;;;;;32.95;20.90;;;;;;;3.93;100.00;99827.25;10267398;28;20045;-69
2021/12/04 07:24:31;;;;;;;32.90;21.83;;;;;;;3.90;100.00;99828.63;10285113;28;20080;-69
2021/12/04 07:29:27;;;;;;;33.00;21.75;;;;;;;4.05;100.00;99824.88;10265029;28;20053;-71
2021/12/04 07:34:24;;;;;;;31.23;21.83;;;;;;;4.03;100.00;99831.69;10270763;28;20570;-70
2021/12/04 07:39:20;;;;;;;29.77;19.55;;;;;;;4.09;100.00;99831.31;10263823;28;20413;-70
2021/12/04 07:44:17;;;;;;;22.40;16.13;;;;;;;3.97;100.00;99815.53;10266871;28;20045;-72
2021/12/04 07:49:14;;;;;;;23.83;15.85;;;;;;;3.93;100.00;99822.63;10273183;28;20032;-70
2021/12/04 07:54:12;;;;;;;22.55;16.75;;;;;;;4.00;100.00;99822.25;10265289;28;20048;-68
2021/12/04 07:59:08;;;;;;;30.67;20.33;;;;;;;4.04;100.00;99804.34;10260458;28;20056;-68
2021/12/04 08:04:05;;;;;;;27.60;18.65;;;;;;;4.15;100.00;99808.44;10263925;28;20049;-68
2021/12/04 08:09:02;;;;;;;24.55;17.75;;;;;;;4.06;100.00;99814.84;10261091;28;20032;-67
2021/12/04 08:14:00;;;;;;;27.65;19.27;;;;;;;4.20;100.00;99821.09;10265774;28;20044;-67
2021/12/04 08:18:57;;;;;;;23.27;16.98;;;;;;;4.12;100.00;99816.38;10256737;28;20045;-67
2021/12/04 08:23:54;;;;;;;27.92;20.00;;;;;;;4.17;100.00;99827.09;10254825;28;20170;-67
2021/12/04 08:28:51;;;;;;;23.98;17.77;;;;;;;4.05;100.00;99826.78;10267056;28;20033;-67
2021/12/04 08:33:48;;;;;;;28.10;19.70;;;;;;;4.17;100.00;99837.94;10275873;28;20057;-66
2021/12/04 08:38:47;;;;;;;29.35;19.67;;;;;;;4.20;100.00;99837.31;10272656;28;20045;-66
2021/12/04 08:43:44;;;;;;;28.67;18.80;;;;;;;4.13;100.00;99831.50;10271529;28;20725;-66
2021/12/04 08:48:41;;;;;;;27.27;19.42;;;;;;;4.07;100.00;99832.69;10262093;28;20139;-66
2021/12/04 08:53:37;;;;;;;30.35;20.40;;;;;;;4.13;100.00;99826.91;10267767;28;20045;-66
2021/12/04 08:58:36;;;;;;;30.58;20.25;;;;;;;4.03;100.00;99834.38;10285920;28;20576;-67
2021/12/04 09:03:36;;;;;;;32.67;20.60;;;;;;;4.15;100.00;99829.31;10249603;28;20585;-66
2021/12/04 09:08:33;;;;;;;37.40;21.75;;;;;;;4.24;100.00;99832.94;10268325;28;20424;-67
2021/12/04 09:13:30;;;;;;;30.77;19.65;;;;;;;4.14;100.00;99816.88;10270925;28;20484;-66
2021/12/04 09:18:27;;;;;;;32.72;20.17;;;;;;;4.20;100.00;99813.81;10268505;28;20045;-66
2021/12/04 09:23:31;;;;;;;36.78;23.48;;;;;;;4.32;100.00;99807.91;10273657;28;20095;-67
2021/12/04 09:28:40;;;;;;;34.08;22.27;;;;;;;4.35;100.00;99812.72;10264810;28;20114;-67
2021/12/04 09:33:58;;;;;;;31.88;20.27;;;;;;;4.37;100.00;99818.63;10277000;28;20074;-68
2021/12/04 10:00:10;;;;;;;29.10;20.20;;;;;;;4.28;100.00;99797.97;10273949;28;20434;-68
2021/12/04 10:11:38;;;;;;;32.00;19.90;;;;;;;4.27;100.00;99783.66;10266691;28;20048;-69
2021/12/04 10:16:14;;;;;;;32.45;20.42;;;;;;;4.27;100.00;99772.81;10263786;28;20110;-68
2021/12/04 10:21:37;;;;;;;27.85;18.92;;;;;;;4.23;100.00;99766.41;10267269;28;20665;-67
2021/12/04 10:37:13;;;;;;;24.42;14.40;;;;;;;4.03;100.00;99755.94;10274691;28;20056;-67
2021/12/04 10:42:44;;;;;;;20.85;13.32;;;;;;;4.12;100.00;99759.56;10267854;28;20139;-69
2021/12/04 10:47:32;;;;;;;22.50;14.00;;;;;;;4.10;100.00;99767.16;10263338;28;20040;-71
2021/12/04 11:02:52;;;;;;;23.88;15.65;;;;;;;4.10;100.00;99745.53;10256327;28;20543;-69
2021/12/04 11:18:35;;;;;;;28.75;17.35;;;;;;;4.28;100.00;99739.25;10258637;28;20049;-70
2021/12/04 11:34:57;;;;;;;23.52;14.98;;;;;;;4.33;100.00;99733.72;10272864;28;20079;-69
2021/12/04 11:49:42;;;;;;;24.15;15.38;;;;;;;4.53;100.00;99704.66;10262905;28;20088;-68
2021/12/04 11:54:44;;;;;;;28.88;17.13;;;;;;;4.53;100.00;99693.84;10280706;28;20501;-68
2021/12/04 11:59:43;;;;;;;24.20;16.23;;;;;;;4.52;100.00;99687.59;10261856;28;20072;-68
2021/12/04 12:04:48;;;;;;;25.30;16.05;;;;;;;4.51;100.00;99685.22;10263078;28;20053;-69
2021/12/04 12:09:46;;;;;;;28.05;18.23;;;;;;;4.55;100.00;99688.91;10262465;28;20049;-68
2021/12/04 12:14:51;;;;;;;29.63;17.88;;;;;;;4.47;100.00;99684.22;10252513;28;20057;-68
2021/12/04 12:19:51;;;;;;;28.40;19.40;;;;;;;4.47;100.00;99684.22;10279984;28;20045;-70
2021/12/04 12:40:27;;;;;;;26.83;16.55;;;;;;;4.48;100.00;99707.47;10265598;28;20052;-67
2021/12/04 12:45:32;;;;;;;26.45;16.40;;;;;;;4.51;100.00;99696.03;10265343;28;20115;-68
2021/12/04 12:50:41;;;;;;;21.90;15.05;;;;;;;4.48;100.00;99691.22;10263996;28;20083;-69
2021/12/04 12:55:39;;;;;;;24.02;17.02;;;;;;;4.48;100.00;99677.69;10259805;28;20049;-69
2021/12/04 13:16:32;;;;;;;33.17;19.52;;;;;;;4.35;100.00;99654.94;10260907;28;20064;-69
2021/12/04 13:21:36;;;;;;;30.25;20.52;;;;;;;4.40;100.00;99642.09;10261922;28;20049;-68
2021/12/04 13:26:35;;;;;;;27.98;17.38;;;;;;;4.35;100.00;99633.31;10262929;28;20474;-68
2021/12/04 13:31:37;;;;;;;30.55;19.40;;;;;;;4.45;100.00;99626.88;10264788;28;20467;-68
2021/12/04 13:36:34;;;;;;;29.17;18.17;;;;;;;4.51;100.00;99620.25;10278468;28;20076;-68
2021/12/04 13:41:31;;;;;;;25.70;17.80;;;;;;;4.45;100.00;99610.63;10271830;28;20071;-68
2021/12/04 13:46:37;;;;;;;27.52;18.30;;;;;;;4.54;100.00;99600.69;10265086;28;20099;-68
2021/12/04 13:51:34;;;;;;;27.58;17.52;;;;;;;4.38;100.00;99595.59;10265557;28;20055;-69
2021/12/04 13:56:31;;;;;;;27.40;17.55;;;;;;;4.49;100.00;99603.50;10275988;28;20056;-68
2021/12/04 14:01:30;;;;;;;25.77;16.65;;;;;;;4.47;100.00;99600.31;10283833;28;20072;-68
2021/12/04 14:06:27;;;;;;;22.50;15.68;;;;;;;4.29;100.00;99592.00;10291173;28;20048;-69
2021/12/04 14:11:32;;;;;;;23.38;15.95;;;;;;;4.37;100.00;99599.41;10284705;28;20462;-69
2021/12/04 14:16:28;;;;;;;24.25;16.00;;;;;;;4.49;100.00;99595.38;10291451;28;20068;-68
2021/12/04 14:21:25;;;;;;;19.90;14.55;;;;;;;4.46;100.00;99590.59;10283648;28;20067;-68
2021/12/04 14:26:21;;;;;;;19.92;13.57;;;;;;;4.45;100.00;99588.97;10295890;28;20090;-68
2021/12/04 14:31:32;;;;;;;16.08;11.75;;;;;;;4.50;100.00;99586.94;10297690;28;20049;-68
2021/12/04 14:36:29;;;;;;;15.95;10.82;;;;;;;4.47;100.00;99592.19;10286485;28;20044;-68
2021/12/04 14:41:29;;;;;;;16.33;11.95;;;;;;;4.53;100.00;99593.69;10286338;28;20053;-68
2021/12/04 14:46:27;;;;;;;14.20;9.68;;;;;;;4.52;100.00;99584.75;10284601;28;20091;-68
2021/12/04 14:51:24;;;;;;;16.55;11.82;;;;;;;4.44;100.00;99590.88;10284641;28;20049;-68
2021/12/04 14:56:23;;;;;;;21.70;13.23;;;;;;;4.50;100.00;99591.56;10283897;28;20048;-68
2021/12/04 15:01:23;;;;;;;22.83;13.10;;;;;;;4.53;100.00;99580.16;10292220;28;20575;-68
2021/12/04 15:06:22;;;;;;;24.65;15.25;;;;;;;4.52;100.00;99584.75;10284786;28;20037;-69
2021/12/04 15:11:22;;;;;;;26.15;15.10;;;;;;;4.54;100.00;99576.31;10291631;28;20087;-69
2021/12/04 15:16:32;;;;;;;25.13;15.63;;;;;;;4.39;100.00;99580.97;10285494;28;20114;-70
2021/12/04 15:21:40;;;;;;;23.52;14.63;;;;;;;4.38;100.00;99595.59;10286100;28;20459;-69
2021/12/04 15:26:41;;;;;;;17.77;12.18;;;;;;;4.43;100.00;99613.63;10290430;28;20041;-70
2021/12/04 15:31:41;;;;;;;23.02;13.57;;;;;;;4.38;100.00;99617.25;10282112;28;20562;-70
2021/12/04 15:36:44;;;;;;;17.73;12.18;;;;;;;4.47;100.00;99621.97;10280880;28;20040;-70
2021/12/04 15:57:34;;;;;;;17.42;11.90;;;;;;;4.31;100.00;99606.03;10287615;28;20076;-68
2021/12/04 16:02:38;;;;;;;14.23;9.40;;;;;;;4.40;100.00;99592.59;10291637;28;20098;-69
2021/12/04 16:07:35;;;;;;;14.82;10.85;;;;;;;4.42;100.00;99591.19;10292197;28;20432;-68
2021/12/04 16:12:37;;;;;;;15.82;10.18;;;;;;;4.35;100.00;99574.56;10290665;28;20045;-69
2021/12/04 16:17:33;;;;;;;17.92;12.30;;;;;;;4.38;100.00;99568.53;10286602;28;20052;-69
2021/12/04 16:22:36;;;;;;;17.10;11.73;;;;;;;4.33;100.00;99555.13;10314619;28;20055;-68
2021/12/04 16:27:37;;;;;;;17.05;11.68;;;;;;;4.32;100.00;99558.16;10305766;28;20097;-69
2021/12/04 16:38:07;;;;;;;16.73;11.80;;;;;;;4.26;100.00;99560.16;10286997;28;20045;-69
2021/12/04 16:43:18;;;;;;;16.92;11.90;;;;;;;4.30;100.00;99544.91;10289029;28;20041;-69
2021/12/04 16:48:16;;;;;;;15.18;10.25;;;;;;;4.34;100.00;99551.31;10292473;28;20076;-69
2021/12/04 16:58:28;;;;;;;18.00;12.00;;;;;;;4.39;100.00;99580.97;10293795;28;20049;-69
2021/12/04 17:03:26;;;;;;;18.42;12.27;;;;;;;4.40;100.00;99582.56;10282763;28;20128;-68
2021/12/04 17:08:25;;;;;;;18.52;13.05;;;;;;;4.30;100.00;99577.38;10281550;28;20095;-69
2021/12/04 17:13:21;;;;;;;16.75;12.30;;;;;;;4.36;100.00;99580.75;10286413;28;20045;-68
2021/12/04 17:18:22;;;;;;;18.52;12.65;;;;;;;4.34;100.00;99594.63;10278282;28;20044;-69
2021/12/04 17:23:22;;;;;;;16.98;10.95;;;;;;;4.29;100.00;99596.63;10278215;28;20413;-68
2021/12/04 17:28:24;;;;;;;17.27;12.68;;;;;;;4.28;100.00;99593.13;10266319;28;20049;-70
2021/12/04 17:33:20;;;;;;;15.63;11.48;;;;;;;4.15;100.00;99593.94;10269212;28;20067;-68
2021/12/04 17:38:17;;;;;;;16.77;12.40;;;;;;;4.21;100.00;99600.84;10283829;28;20099;-69
2021/12/04 17:43:13;;;;;;;15.32;11.38;;;;;;;4.31;100.00;99605.25;10278571;28;20040;-69
2021/12/04 17:48:11;;;;;;;14.63;9.35;;;;;;;4.24;100.00;99610.25;10265757;28;20048;-69
2021/12/04 17:53:09;;;;;;;13.65;9.43;;;;;;;4.31;100.00;99595.22;10273945;28;20102;-68
2021/12/04 17:58:06;;;;;;;13.85;9.35;;;;;;;4.11;100.00;99596.44;10279433;28;20048;-68
2021/12/04 18:03:03;;;;;;;14.07;9.52;;;;;;;4.23;100.00;99598.63;10281896;28;20044;-69
2021/12/04 18:08:01;;;;;;;13.73;10.75;;;;;;;4.07;100.00;99602.78;10275865;28;20132;-69
2021/12/04 18:13:02;;;;;;;16.13;11.57;;;;;;;4.04;100.00;99603.34;10281001;28;20037;-68
2021/12/04 18:18:00;;;;;;;15.23;11.73;;;;;;;4.00;100.00;99622.09;10277518;28;20041;-68
2021/12/04 18:22:57;;;;;;;17.90;13.23;;;;;;;4.08;100.00;99617.88;10282053;28;20079;-68
2021/12/04 18:27:55;;;;;;;19.73;13.93;;;;;;;4.00;100.00;99617.47;10280731;28;20078;-68
2021/12/04 18:32:52;;;;;;;23.15;16.52;;;;;;;3.95;100.00;99614.88;10281305;28;20056;-68
2021/12/04 18:37:50;;;;;;;21.13;13.98;;;;;;;3.93;100.00;99617.09;10262244;28;20048;-69
2021/12/04 18:42:48;;;;;;;25.42;15.45;;;;;;;3.83;100.00;99611.88;10291403;28;20068;-68
2021/12/04 18:47:45;;;;;;;24.65;15.65;;;;;;;3.99;100.00;99621.31;10273226;28;20457;-68
2021/12/04 18:52:42;;;;;;;32.60;20.17;;;;;;;3.94;100.00;99618.69;10275273;28;20045;-68
2021/12/04 18:57:39;;;;;;;29.40;17.70;;;;;;;3.70;100.00;99618.06;10274530;28;20115;-68
2021/12/04 19:02:35;;;;;;;26.10;16.77;;;;;;;3.88;100.00;99619.91;10277304;28;20072;-68
2021/12/04 19:07:32;;;;;;;25.30;16.42;;;;;;;3.82;100.00;99625.69;10272516;28;20516;-68
2021/12/04 19:12:29;;;;;;;24.27;14.77;;;;;;;3.82;100.00;99621.09;10266726;28;20072;-68
2021/12/04 19:17:26;;;;;;;21.98;13.15;;;;;;;3.75;100.00;99620.69;10269238;28;20044;-68
2021/12/04 19:22:22;;;;;;;21.52;13.98;;;;;;;3.73;100.00;99617.47;10269532;28;20102;-69
2021/12/04 19:27:19;;;;;;;20.05;12.68;;;;;;;3.72;100.00;99605.06;10272539;28;20515;-67
2021/12/04 19:32:22;;;;;;;20.33;13.18;;;;;;;3.72;100.00;99605.06;10274295;28;20566;-69
2021/12/04 19:58:21;;;;;;;19.35;12.95;;;;;;;3.32;100.00;99594.69;10267972;28;20063;-69
2021/12/04 20:03:44;;;;;;;18.25;12.57;;;;;;;3.49;100.00;99602.22;10268432;28;20124;-68
2021/12/04 20:13:56;;;;;;;18.65;13.10;;;;;;;3.57;100.00;99592.63;10260122;28;20478;-68
2021/12/04 20:19:00;;;;;;;19.08;12.75;;;;;;;3.41;100.00;99600.19;10271182;28;20045;-68
2021/12/04 20:23:57;;;;;;;19.08;13.32;;;;;;;3.36;100.00;99593.00;10266258;28;20090;-68
2021/12/04 20:34:07;;;;;;;22.70;14.05;;;;;;;3.56;100.00;99596.44;10268712;28;20041;-71
2021/12/04 21:52:59;;;;;;;16.80;11.18;;;;;;;2.73;100.00;99633.97;10293752;28;20091;-69
2021/12/04 23:00:58;;;;;;;21.60;13.48;;;;;;;1.98;100.00;99684.00;10285531;28;20084;-67
2021/12/04 23:16:26;;;;;;;20.33;13.52;;;;;;;1.92;100.00;99684.31;10292302;28;20052;-67
2021/12/04 23:42:40;;;;;;;16.88;11.20;;;;;;;1.80;100.00;99682.81;10294964;28;20090;-70
